• Join FlightAware (Why Join?)
  • Login
  • US Flag 
Rudolph Flight #1: Arrived! 
04:04PM EST


 

Airport Tracker/Info


-or-


 

Live Flight TrackerFlight Track Log ✈ AAL1583 ✈ 18-Aug-2013 ✈ KDFW - KDEN

Flight Track Log - Related Links

Times and Time Zones

All times are in EDT time to prevent confusion due to time zone crossing. See the AAL1583 flight status page for this flight to view local times or setup timezone preferences in your user account.

Time Position Orientation Groundspeed Altitude Reporting Facility
EDT Latitude Longitude Course Direction KTS MPH feet Rate Location/Type
05:39PM 32.8833 -97.0500 North 184 212 1,200  Level Dallas / Fort Worth TRACON
05:40PM 32.8167 -97.0667 192° South 241 277 2,800 2,100 Climbing Dallas / Fort Worth TRACON
05:41PM 32.7574 -96.9555 112° Southeast  Level FlightAware Approximate
05:41PM 32.7667 -97.1000 209° Southwest 266 306 5,400  Level Dallas / Fort Worth TRACON
05:42PM 32.7637 -96.8314 77° East  Level FlightAware Approximate
05:42PM 32.7667 -97.2000 270° West 293 337 7,900  Level Dallas / Fort Worth TRACON
05:43PM 32.8601 -96.8000 North  Level FlightAware Approximate
05:43PM 32.8250 -97.2675 316° Northwest 291 335 10,600  Level Fort Worth Center
05:44PM 32.9674 -96.8000 North  Level FlightAware Approximate
05:44PM 32.9042 -97.2747 356° North 308 354 12,400  Level Fort Worth Center
05:45PM 33.0128 -97.2722 North 337 388 14,400 2,100 Climbing Fort Worth Center
05:46PM 33.1047 -97.2672 North 357 411 16,700 2,340 Climbing Fort Worth Center
05:47PM 33.2217 -97.2619 North 368 423 19,100 2,160 Climbing Fort Worth Center
05:48PM 33.3156 -97.2594 North 368 423 21,100 1,800 Climbing Fort Worth Center
05:49PM 33.4344 -97.2517 North 373 429 22,800 1,500 Climbing Fort Worth Center
05:50PM 33.5389 -97.2414 North 391 450 24,100 1,200 Climbing Fort Worth Center
05:51PM 33.6494 -97.2414 360° North 402 463 25,300 900 Climbing Fort Worth Center
05:52PM 33.7247 -97.3511 310° West 377 434 26,000 900 Climbing Fort Worth Center
05:53PM 33.8081 -97.4608 312° West 404 465 27,100 1,500 Climbing Fort Worth Center
05:54PM 33.9103 -97.5761 317° Northwest 446 513 29,000 1,620 Climbing Fort Worth Center
05:55PM 34.0019 -97.6717 319° Northwest 451 519 30,400 1,320 Climbing Fort Worth Center
05:56PM 34.0914 -97.7722 317° Northwest 446 513 31,700 1,020 Climbing Fort Worth Center
05:57PM 34.1725 -97.8728 314° West 438 504 32,500 900 Climbing Fort Worth Center
05:58PM 34.2617 -97.9714 318° Northwest 433 498 33,500 720 Climbing Fort Worth Center
05:59PM 34.3511 -98.0675 318° Northwest 433 498 34,000 240 Climbing Fort Worth Center
06:00PM 34.4381 -98.1639 318° Northwest 427 491 34,000  Level Fort Worth Center
06:01PM 34.5250 -98.2631 317° Northwest 421 484 34,000  Level Fort Worth Center
06:02PM 34.6142 -98.3597 318° Northwest 421 484 34,000  Level Fort Worth Center
06:03PM 34.6989 -98.4542 318° Northwest 421 484 34,000  Level Fort Worth Center
06:04PM 34.7900 -98.5461 320° Northwest 421 484 34,000  Level Fort Worth Center
06:05PM 34.8767 -98.6436 317° Northwest 421 484 34,000  Level Fort Worth Center
06:06PM 34.9675 -98.7436 318° Northwest 426 490 34,000  Level Fort Worth Center
06:07PM 35.0519 -98.8389 317° Northwest 421 484 34,000  Level Fort Worth Center
06:08PM 35.1383 -98.9394 316° Northwest 421 484 34,000  Level Fort Worth Center
06:09PM 35.2247 -99.0375 317° Northwest 421 484 34,000  Level Fort Worth Center
06:10PM 35.3131 -99.1383 317° Northwest 421 484 34,000  Level Fort Worth Center
06:11PM 35.3992 -99.2369 317° Northwest 421 484 34,000  Level Fort Worth Center
06:13PM 35.5897 -99.4603 316° Northwest 424 488 34,000  Level Kansas City Center
06:14PM 35.6775 -99.5600 317° Northwest 424 488 34,000  Level Kansas City Center
06:15PM 35.7619 -99.6617 316° Northwest 422 486 34,000  Level Kansas City Center
06:16PM 35.8486 -99.7631 317° Northwest 423 487 34,000  Level Kansas City Center
06:17PM 35.9336 -99.8636 316° Northwest 422 486 34,000  Level Kansas City Center
06:18PM 36.0183 -99.9644 316° Northwest 421 484 34,000  Level Kansas City Center
06:19PM 36.1031 -100.0658 316° Northwest 421 484 34,000  Level Kansas City Center
06:20PM 36.1869 -100.1675 316° Northwest 421 484 34,000  Level Kansas City Center
06:22PM 36.2894 -100.2892 316° Northwest 421 484 34,000  Level Kansas City Center
06:23PM 36.3733 -100.3917 315° West 422 486 34,000  Level Kansas City Center
06:24PM 36.4619 -100.5006 315° West 425 489 34,000  Level Kansas City Center
06:25PM 36.5422 -100.5983 316° Northwest 423 487 34,000  Level Kansas City Center
06:26PM 36.6361 -100.7119 316° Northwest 422 486 34,000  Level Kansas City Center
06:27PM 36.7161 -100.8122 315° West 423 487 34,000  Level Kansas City Center
06:28PM 36.7964 -100.9108 315° West 423 487 34,000  Level Kansas City Center
06:29PM 36.8906 -101.0258 316° Northwest 423 487 34,000  Level Kansas City Center
06:30PM 36.9706 -101.1253 315° West 422 486 34,000  Level Kansas City Center
06:31PM 37.0631 -101.2422 315° West 422 486 34,000  Level Kansas City Center
06:32PM 37.1436 -101.3425 315° West 423 487 34,000  Level Kansas City Center
06:33PM 37.2369 -101.4600 315° West 423 487 34,000  Level Kansas City Center
06:34PM 37.3169 -101.5603 315° West 423 487 34,000  Level Kansas City Center
06:35PM 37.3961 -101.6603 315° West 422 486 34,000  Level Kansas City Center
06:36PM 37.4872 -101.7758 315° West 417 480 34,000  Level Kansas City Center
06:37PM 37.5653 -101.8756 315° West 417 480 34,000  Level Kansas City Center
06:38PM 37.6558 -101.9919 315° West 414 476 34,000  Level Denver Center
06:39PM 37.7322 -102.0914 314° West 414 476 34,000  Level Kansas City Center
06:40PM 37.8300 -102.1958 320° Northwest 411 473 34,000  Level Kansas City Center
06:41PM 37.9250 -102.2694 329° Northwest 415 478 34,000  Level Kansas City Center
06:42PM 38.0142 -102.3514 324° Northwest 413 475 34,000  Level Denver Center
06:43PM 38.1217 -102.4403 327° Northwest 413 475 34,000  Level Denver Center
06:44PM 38.2147 -102.5144 328° Northwest 411 473 34,000  Level Denver Center
06:45PM 38.3169 -102.6094 324° Northwest 408 470 34,000  Level Denver Center
06:46PM 38.3800 -102.7200 306° West 405 466 34,000  Level Denver Center
06:47PM 38.4567 -102.8456 308° West 403 464 34,000  Level Denver Center
06:48PM 38.5261 -102.9525 310° West 408 470 34,000  Level Denver Center
06:49PM 38.6022 -103.0722 309° West 404 465 34,000 -1,020 Level Denver Center
06:50PM 38.6733 -103.1844 309° West 406 467 32,000 -2,400 Descending Denver Center
06:51PM 38.7464 -103.3003 309° West 417 480 29,200 -2,460 Descending Denver Center
06:52PM 38.8167 -103.4125 309° West 407 468 27,000 -2,040 Descending Denver Center
06:54PM 38.8869 -103.5225 309° West 400 460 24,700 -2,220 Descending Denver Center
06:55PM 38.9658 -103.6489 309° West 379 436 22,100 -2,580 Descending Denver Center
06:56PM 39.0436 -103.7769 308° West 378 435 19,400 -2,040 Descending Denver Center
06:57PM 39.1081 -103.8781 309° West 369 425 17,600 -2,280 Descending Denver Center
06:58PM 39.1575 -104.0192 294° West 361 415 14,300 -2,220 Descending Denver Center
06:59PM 39.2153 -104.1367 302° West 375 432 13,000 -720 Descending Denver Center
07:00PM 39.2950 -104.2006 328° Northwest 347 399 12,800 -900 Descending Denver Center
07:01PM 39.3503 -104.3089 303° West 333 383 11,200 -1,380 Descending Denver Center
07:02PM 39.4089 -104.4033 309° West 334 384 10,000 -600 Descending Denver Center
07:03PM 39.4647 -104.5058 305° West 322 371 10,000  Level Denver Center
07:04PM 39.5367 -104.5775 322° Northwest 327 376 10,000  Level Denver Center
07:05PM 39.5942 -104.6256 327° Northwest 293 337 10,000 -780 Level Denver Center
07:06PM 39.6842 -104.6436 351° North 280 322 8,500 -1,500 Descending Denver Center
07:07PM 39.7503 -104.6439 360° North 242 278 7,000 -1,260 Descending Denver Center
07:08PM 39.7994 -104.6428 North 167 192 6,000 -840 Descending Denver Center
07:09PM 39.8372 -104.6419 North 150 173 5,300 -720 Descending Denver Center